Landes Station, West Virginia
Current Conditions -  °F | °C
As of 2:35 PM on Tuesday 21 Oct 2014 (Local Time) from K8W2 Reporting Station
Overcast Overcast  
Wind Chill: 62°   Ceiling: 8000
Heat Index: 62°   Visibility: 10mi
Dew Point: 45°   Wind: 5mph
Humidity: 54%   Direction: 360°N
Pressure: 29.82"   Gusts: NA
Location:  38.9337°N, 79.1435°W
Report Text: K8W2 211835Z AUTO 36004KT 10SM SCT070 BKN080 OVC085 17/07 A2982 RMK AO1 T01660072
Loading
Personal Weather Stations






























Interactive Weather Map New forecast layout! Learn more

10-Day Weather Forecast

Advertisements
Track Severe Weather on mobile